sensor_id;sensor_type;location;lat;lon;timestamp;temperature;humidity
66962;HTU21D;53897;51.126;5.868;2023-06-10T00:02:08;27.57;48.02
66962;HTU21D;53897;51.126;5.868;2023-06-10T00:04:34;27.56;48.00
66962;HTU21D;53897;51.126;5.868;2023-06-10T00:07:05;27.57;48.13
66962;HTU21D;53897;51.126;5.868;2023-06-10T00:09:37;27.58;48.09
66962;HTU21D;53897;51.126;5.868;2023-06-10T00:12:04;27.55;48.05
66962;HTU21D;53897;51.126;5.868;2023-06-10T00:14:33;27.56;48.02
66962;HTU21D;53897;51.126;5.868;2023-06-10T00:16:59;27.56;47.99
66962;HTU21D;53897;51.126;5.868;2023-06-10T00:19:25;27.55;47.98
66962;HTU21D;53897;51.126;5.868;2023-06-10T00:21:51;27.55;47.96
66962;HTU21D;53897;51.126;5.868;2023-06-10T00:24:18;27.54;47.96
66962;HTU21D;53897;51.126;5.868;2023-06-10T00:26:44;27.54;47.96
66962;HTU21D;53897;51.126;5.868;2023-06-10T00:29:10;27.54;47.94
66962;HTU21D;53897;51.126;5.868;2023-06-10T00:31:37;27.53;47.94
66962;HTU21D;53897;51.126;5.868;2023-06-10T00:34:07;27.52;47.96
66962;HTU21D;53897;51.126;5.868;2023-06-10T00:36:33;27.52;47.96
66962;HTU21D;53897;51.126;5.868;2023-06-10T00:38:59;27.52;47.96
66962;HTU21D;53897;51.126;5.868;2023-06-10T00:41:25;27.52;47.95
66962;HTU21D;53897;51.126;5.868;2023-06-10T00:43:53;27.51;47.92
66962;HTU21D;53897;51.126;5.868;2023-06-10T00:46:21;27.52;47.89
66962;HTU21D;53897;51.126;5.868;2023-06-10T00:48:47;27.51;47.88
66962;HTU21D;53897;51.126;5.868;2023-06-10T00:51:13;27.49;47.86
66962;HTU21D;53897;51.126;5.868;2023-06-10T00:53:40;27.50;47.80
66962;HTU21D;53897;51.126;5.868;2023-06-10T00:56:07;27.49;47.78
66962;HTU21D;53897;51.126;5.868;2023-06-10T00:58:35;27.47;47.79
66962;HTU21D;53897;51.126;5.868;2023-06-10T01:01:01;27.47;47.78
66962;HTU21D;53897;51.126;5.868;2023-06-10T01:03:27;27.46;47.79
66962;HTU21D;53897;51.126;5.868;2023-06-10T01:09:15;27.44;47.78
66962;HTU21D;53897;51.126;5.868;2023-06-10T01:11:58;27.45;47.76
66962;HTU21D;53897;51.126;5.868;2023-06-10T01:14:26;27.43;47.73
66962;HTU21D;53897;51.126;5.868;2023-06-10T01:16:52;27.44;47.73
66962;HTU21D;53897;51.126;5.868;2023-06-10T01:19:18;27.44;47.75
66962;HTU21D;53897;51.126;5.868;2023-06-10T01:21:44;27.42;47.76
66962;HTU21D;53897;51.126;5.868;2023-06-10T01:24:14;27.42;47.74
66962;HTU21D;53897;51.126;5.868;2023-06-10T01:26:46;27.41;47.75
66962;HTU21D;53897;51.126;5.868;2023-06-10T01:29:31;27.41;47.76
66962;HTU21D;53897;51.126;5.868;2023-06-10T01:32:17;27.41;47.76
66962;HTU21D;53897;51.126;5.868;2023-06-10T01:34:45;27.39;47.77
66962;HTU21D;53897;51.126;5.868;2023-06-10T01:37:14;27.39;47.78
66962;HTU21D;53897;51.126;5.868;2023-06-10T01:39:43;27.39;47.77
66962;HTU21D;53897;51.126;5.868;2023-06-10T01:42:11;27.39;47.76
66962;HTU21D;53897;51.126;5.868;2023-06-10T01:44:39;27.38;47.76
66962;HTU21D;53897;51.126;5.868;2023-06-10T01:47:08;27.38;47.76
66962;HTU21D;53897;51.126;5.868;2023-06-10T01:49:34;27.37;47.76
66962;HTU21D;53897;51.126;5.868;2023-06-10T01:52:00;27.37;47.79
66962;HTU21D;53897;51.126;5.868;2023-06-10T01:54:26;27.37;47.79
66962;HTU21D;53897;51.126;5.868;2023-06-10T01:56:51;27.36;47.79
66962;HTU21D;53897;51.126;5.868;2023-06-10T01:59:17;27.35;47.82
66962;HTU21D;53897;51.126;5.868;2023-06-10T02:01:43;27.34;47.83
66962;HTU21D;53897;51.126;5.868;2023-06-10T02:04:09;27.35;47.83
66962;HTU21D;53897;51.126;5.868;2023-06-10T02:06:35;27.34;47.83
66962;HTU21D;53897;51.126;5.868;2023-06-10T02:09:03;27.34;47.83
66962;HTU21D;53897;51.126;5.868;2023-06-10T02:11:29;27.34;47.83
66962;HTU21D;53897;51.126;5.868;2023-06-10T02:13:54;27.34;47.83
66962;HTU21D;53897;51.126;5.868;2023-06-10T02:16:20;27.32;47.83
66962;HTU21D;53897;51.126;5.868;2023-06-10T02:18:46;27.30;47.83
66962;HTU21D;53897;51.126;5.868;2023-06-10T02:21:12;27.32;47.83
66962;HTU21D;53897;51.126;5.868;2023-06-10T02:23:38;27.30;47.84
66962;HTU21D;53897;51.126;5.868;2023-06-10T02:26:04;27.30;47.84
66962;HTU21D;53897;51.126;5.868;2023-06-10T02:28:29;27.29;47.83
66962;HTU21D;53897;51.126;5.868;2023-06-10T02:30:57;27.28;47.81
66962;HTU21D;53897;51.126;5.868;2023-06-10T02:33:23;27.29;47.82
66962;HTU21D;53897;51.126;5.868;2023-06-10T02:35:50;27.28;47.81
66962;HTU21D;53897;51.126;5.868;2023-06-10T02:38:16;27.28;47.80
66962;HTU21D;53897;51.126;5.868;2023-06-10T02:40:42;27.28;47.79
66962;HTU21D;53897;51.126;5.868;2023-06-10T02:43:09;27.26;47.79
66962;HTU21D;53897;51.126;5.868;2023-06-10T02:45:36;27.26;47.78
66962;HTU21D;53897;51.126;5.868;2023-06-10T02:48:03;27.27;47.80
66962;HTU21D;53897;51.126;5.868;2023-06-10T02:50:29;27.26;47.82
66962;HTU21D;53897;51.126;5.868;2023-06-10T02:53:04;27.25;47.83
66962;HTU21D;53897;51.126;5.868;2023-06-10T02:55:31;27.25;47.86
66962;HTU21D;53897;51.126;5.868;2023-06-10T02:58:01;27.23;47.89
66962;HTU21D;53897;51.126;5.868;2023-06-10T03:00:28;27.23;47.90
66962;HTU21D;53897;51.126;5.868;2023-06-10T03:02:54;27.22;47.93
66962;HTU21D;53897;51.126;5.868;2023-06-10T03:05:25;27.20;47.98
66962;HTU21D;53897;51.126;5.868;2023-06-10T03:07:53;27.21;47.96
66962;HTU21D;53897;51.126;5.868;2023-06-10T03:10:19;27.22;47.96
66962;HTU21D;53897;51.126;5.868;2023-06-10T03:12:45;27.20;47.94
66962;HTU21D;53897;51.126;5.868;2023-06-10T03:15:11;27.19;47.94
66962;HTU21D;53897;51.126;5.868;2023-06-10T03:17:37;27.20;47.94
66962;HTU21D;53897;51.126;5.868;2023-06-10T03:20:03;27.19;47.98
66962;HTU21D;53897;51.126;5.868;2023-06-10T03:22:31;27.17;47.91
66962;HTU21D;53897;51.126;5.868;2023-06-10T03:25:02;27.16;47.93
66962;HTU21D;53897;51.126;5.868;2023-06-10T03:27:28;27.15;47.92
66962;HTU21D;53897;51.126;5.868;2023-06-10T03:29:58;27.15;47.89
66962;HTU21D;53897;51.126;5.868;2023-06-10T03:32:24;27.13;47.94
66962;HTU21D;53897;51.126;5.868;2023-06-10T03:34:50;27.09;48.01
66962;HTU21D;53897;51.126;5.868;2023-06-10T03:37:17;27.07;48.07
66962;HTU21D;53897;51.126;5.868;2023-06-10T03:39:46;27.08;48.05
66962;HTU21D;53897;51.126;5.868;2023-06-10T03:42:12;27.06;48.04
66962;HTU21D;53897;51.126;5.868;2023-06-10T03:44:37;27.04;48.12
66962;HTU21D;53897;51.126;5.868;2023-06-10T03:47:05;26.98;48.19
66962;HTU21D;53897;51.126;5.868;2023-06-10T03:49:30;26.95;48.28
66962;HTU21D;53897;51.126;5.868;2023-06-10T03:52:00;26.93;48.36
66962;HTU21D;53897;51.126;5.868;2023-06-10T03:54:26;26.90;48.44
66962;HTU21D;53897;51.126;5.868;2023-06-10T03:56:51;26.87;48.52
66962;HTU21D;53897;51.126;5.868;2023-06-10T03:59:17;26.86;48.58
66962;HTU21D;53897;51.126;5.868;2023-06-10T04:01:43;26.84;48.63
66962;HTU21D;53897;51.126;5.868;2023-06-10T04:04:09;26.83;48.67
66962;HTU21D;53897;51.126;5.868;2023-06-10T04:06:36;26.81;48.71
66962;HTU21D;53897;51.126;5.868;2023-06-10T04:09:02;26.80;48.74
66962;HTU21D;53897;51.126;5.868;2023-06-10T04:11:28;26.81;48.73
66962;HTU21D;53897;51.126;5.868;2023-06-10T04:13:56;26.85;48.68
66962;HTU21D;53897;51.126;5.868;2023-06-10T04:16:23;26.84;48.65
66962;HTU21D;53897;51.126;5.868;2023-06-10T04:18:49;26.89;48.57
66962;HTU21D;53897;51.126;5.868;2023-06-10T04:21:16;26.89;48.53
66962;HTU21D;53897;51.126;5.868;2023-06-10T04:23:42;26.91;48.50
66962;HTU21D;53897;51.126;5.868;2023-06-10T04:26:09;26.91;48.48
66962;HTU21D;53897;51.126;5.868;2023-06-10T04:28:38;26.92;48.46
66962;HTU21D;53897;51.126;5.868;2023-06-10T04:31:03;26.90;48.49
66962;HTU21D;53897;51.126;5.868;2023-06-10T04:33:33;26.87;48.54
66962;HTU21D;53897;51.126;5.868;2023-06-10T04:36:01;26.85;48.62
66962;HTU21D;53897;51.126;5.868;2023-06-10T04:38:29;26.83;48.70
66962;HTU21D;53897;51.126;5.868;2023-06-10T04:40:57;26.81;48.75
66962;HTU21D;53897;51.126;5.868;2023-06-10T04:43:23;26.80;48.82
66962;HTU21D;53897;51.126;5.868;2023-06-10T04:45:49;26.78;48.87
66962;HTU21D;53897;51.126;5.868;2023-06-10T04:48:15;26.75;48.92
66962;HTU21D;53897;51.126;5.868;2023-06-10T04:50:41;26.72;48.97
66962;HTU21D;53897;51.126;5.868;2023-06-10T04:53:07;26.72;48.97
66962;HTU21D;53897;51.126;5.868;2023-06-10T04:55:36;26.71;49.01
66962;HTU21D;53897;51.126;5.868;2023-06-10T04:58:02;26.71;49.02
66962;HTU21D;53897;51.126;5.868;2023-06-10T05:00:27;26.70;49.05
66962;HTU21D;53897;51.126;5.868;2023-06-10T05:02:53;26.68;49.09
66962;HTU21D;53897;51.126;5.868;2023-06-10T05:05:19;26.71;49.05
66962;HTU21D;53897;51.126;5.868;2023-06-10T05:07:45;26.75;48.95
66962;HTU21D;53897;51.126;5.868;2023-06-10T05:10:10;26.78;48.88
66962;HTU21D;53897;51.126;5.868;2023-06-10T05:12:38;26.82;48.81
66962;HTU21D;53897;51.126;5.868;2023-06-10T05:15:06;26.85;48.73
66962;HTU21D;53897;51.126;5.868;2023-06-10T05:17:32;26.86;48.60
66962;HTU21D;53897;51.126;5.868;2023-06-10T05:19:58;26.87;48.47
66962;HTU21D;53897;51.126;5.868;2023-06-10T05:22:23;26.90;48.43
66962;HTU21D;53897;51.126;5.868;2023-06-10T05:24:50;26.91;48.39
66962;HTU21D;53897;51.126;5.868;2023-06-10T05:27:16;26.91;48.39
66962;HTU21D;53897;51.126;5.868;2023-06-10T05:29:42;26.93;48.39
66962;HTU21D;53897;51.126;5.868;2023-06-10T05:32:08;26.93;48.40
66962;HTU21D;53897;51.126;5.868;2023-06-10T05:34:34;26.93;48.22
66962;HTU21D;53897;51.126;5.868;2023-06-10T05:36:59;26.93;47.95
66962;HTU21D;53897;51.126;5.868;2023-06-10T05:39:25;26.93;47.64
66962;HTU21D;53897;51.126;5.868;2023-06-10T05:41:51;26.93;47.40
66962;HTU21D;53897;51.126;5.868;2023-06-10T05:44:17;26.93;47.21
66962;HTU21D;53897;51.126;5.868;2023-06-10T05:46:42;26.94;47.08
66962;HTU21D;53897;51.126;5.868;2023-06-10T05:49:08;26.93;47.10
66962;HTU21D;53897;51.126;5.868;2023-06-10T05:51:34;26.92;47.18
66962;HTU21D;53897;51.126;5.868;2023-06-10T05:54:00;26.92;47.25
66962;HTU21D;53897;51.126;5.868;2023-06-10T05:56:26;26.92;47.24
66962;HTU21D;53897;51.126;5.868;2023-06-10T05:58:51;26.92;47.21
66962;HTU21D;53897;51.126;5.868;2023-06-10T06:01:17;26.92;47.18
66962;HTU21D;53897;51.126;5.868;2023-06-10T06:03:43;26.92;47.21
66962;HTU21D;53897;51.126;5.868;2023-06-10T06:06:09;26.92;47.28
66962;HTU21D;53897;51.126;5.868;2023-06-10T06:08:35;26.92;47.30
66962;HTU21D;53897;51.126;5.868;2023-06-10T06:11:00;26.92;47.26
66962;HTU21D;53897;51.126;5.868;2023-06-10T06:13:26;26.93;47.22
66962;HTU21D;53897;51.126;5.868;2023-06-10T06:15:52;26.92;47.18
66962;HTU21D;53897;51.126;5.868;2023-06-10T06:18:18;26.92;47.15
66962;HTU21D;53897;51.126;5.868;2023-06-10T06:20:44;26.93;47.12
66962;HTU21D;53897;51.126;5.868;2023-06-10T06:23:10;26.93;47.11
66962;HTU21D;53897;51.126;5.868;2023-06-10T06:25:37;26.93;47.06
66962;HTU21D;53897;51.126;5.868;2023-06-10T06:28:07;26.93;47.05
66962;HTU21D;53897;51.126;5.868;2023-06-10T06:30:36;26.90;46.99
66962;HTU21D;53897;51.126;5.868;2023-06-10T06:33:02;26.86;47.07
66962;HTU21D;53897;51.126;5.868;2023-06-10T06:35:31;26.86;47.11
66962;HTU21D;53897;51.126;5.868;2023-06-10T06:37:57;26.86;47.12
66962;HTU21D;53897;51.126;5.868;2023-06-10T06:40:26;26.83;47.09
66962;HTU21D;53897;51.126;5.868;2023-06-10T06:42:52;26.81;47.12
66962;HTU21D;53897;51.126;5.868;2023-06-10T06:45:50;26.80;47.16
66962;HTU21D;53897;51.126;5.868;2023-06-10T06:48:16;26.80;47.12
66962;HTU21D;53897;51.126;5.868;2023-06-10T06:50:41;26.78;47.17
66962;HTU21D;53897;51.126;5.868;2023-06-10T06:53:07;26.77;47.23
66962;HTU21D;53897;51.126;5.868;2023-06-10T06:55:33;26.76;47.30
66962;HTU21D;53897;51.126;5.868;2023-06-10T06:57:59;26.76;47.27
66962;HTU21D;53897;51.126;5.868;2023-06-10T07:00:28;26.77;47.22
66962;HTU21D;53897;51.126;5.868;2023-06-10T07:02:53;26.78;47.28
66962;HTU21D;53897;51.126;5.868;2023-06-10T07:05:19;26.80;47.22
66962;HTU21D;53897;51.126;5.868;2023-06-10T07:07:45;26.81;47.28
66962;HTU21D;53897;51.126;5.868;2023-06-10T07:10:11;26.83;47.28
66962;HTU21D;53897;51.126;5.868;2023-06-10T07:12:36;26.83;47.50
66962;HTU21D;53897;51.126;5.868;2023-06-10T07:15:03;26.83;47.51
66962;HTU21D;53897;51.126;5.868;2023-06-10T07:17:28;26.84;47.76
66962;HTU21D;53897;51.126;5.868;2023-06-10T07:19:54;26.87;47.96
66962;HTU21D;53897;51.126;5.868;2023-06-10T07:22:25;26.90;48.15
66962;HTU21D;53897;51.126;5.868;2023-06-10T07:24:50;26.91;48.33
66962;HTU21D;53897;51.126;5.868;2023-06-10T07:27:17;26.90;48.79
66962;HTU21D;53897;51.126;5.868;2023-06-10T07:29:43;26.89;49.21
66962;HTU21D;53897;51.126;5.868;2023-06-10T07:32:09;26.89;49.28
66962;HTU21D;53897;51.126;5.868;2023-06-10T07:34:34;26.90;49.37
66962;HTU21D;53897;51.126;5.868;2023-06-10T07:37:00;26.92;49.47
66962;HTU21D;53897;51.126;5.868;2023-06-10T07:39:26;26.92;49.50
66962;HTU21D;53897;51.126;5.868;2023-06-10T07:41:52;26.92;49.51
66962;HTU21D;53897;51.126;5.868;2023-06-10T07:44:19;26.93;49.44
66962;HTU21D;53897;51.126;5.868;2023-06-10T07:46:46;26.93;49.11
66962;HTU21D;53897;51.126;5.868;2023-06-10T07:49:12;26.93;48.95
66962;HTU21D;53897;51.126;5.868;2023-06-10T07:51:37;26.95;49.01
66962;HTU21D;53897;51.126;5.868;2023-06-10T07:54:03;26.94;48.89
66962;HTU21D;53897;51.126;5.868;2023-06-10T07:56:29;26.94;48.92
66962;HTU21D;53897;51.126;5.868;2023-06-10T07:58:55;26.94;49.09
66962;HTU21D;53897;51.126;5.868;2023-06-10T08:01:22;26.94;49.13
66962;HTU21D;53897;51.126;5.868;2023-06-10T08:03:49;26.95;49.15
66962;HTU21D;53897;51.126;5.868;2023-06-10T08:06:14;26.94;49.17
66962;HTU21D;53897;51.126;5.868;2023-06-10T08:08:42;26.95;49.24
66962;HTU21D;53897;51.126;5.868;2023-06-10T08:11:12;26.95;49.30
66962;HTU21D;53897;51.126;5.868;2023-06-10T08:13:38;26.97;49.21
66962;HTU21D;53897;51.126;5.868;2023-06-10T08:16:04;26.98;49.08
66962;HTU21D;53897;51.126;5.868;2023-06-10T08:18:30;26.98;49.13
66962;HTU21D;53897;51.126;5.868;2023-06-10T08:20:55;26.99;49.18
66962;HTU21D;53897;51.126;5.868;2023-06-10T08:23:21;26.99;49.11
66962;HTU21D;53897;51.126;5.868;2023-06-10T08:25:47;27.01;49.07
66962;HTU21D;53897;51.126;5.868;2023-06-10T08:28:12;27.01;49.05
66962;HTU21D;53897;51.126;5.868;2023-06-10T08:30:38;27.02;49.00
66962;HTU21D;53897;51.126;5.868;2023-06-10T08:33:04;27.04;48.95
66962;HTU21D;53897;51.126;5.868;2023-06-10T08:35:30;27.02;48.89
66962;HTU21D;53897;51.126;5.868;2023-06-10T08:37:55;27.04;48.81
66962;HTU21D;53897;51.126;5.868;2023-06-10T08:40:21;27.05;48.76
66962;HTU21D;53897;51.126;5.868;2023-06-10T08:45:18;27.05;48.64
66962;HTU21D;53897;51.126;5.868;2023-06-10T08:47:45;27.06;48.63
66962;HTU21D;53897;51.126;5.868;2023-06-10T08:50:12;27.07;48.59
66962;HTU21D;53897;51.126;5.868;2023-06-10T08:52:43;27.06;48.53
66962;HTU21D;53897;51.126;5.868;2023-06-10T08:55:26;27.07;48.45
66962;HTU21D;53897;51.126;5.868;2023-06-10T08:57:54;27.06;48.48
66962;HTU21D;53897;51.126;5.868;2023-06-10T09:00:19;27.07;48.52
66962;HTU21D;53897;51.126;5.868;2023-06-10T09:02:46;27.06;48.52
66962;HTU21D;53897;51.126;5.868;2023-06-10T09:05:13;27.07;48.44
66962;HTU21D;53897;51.126;5.868;2023-06-10T09:07:39;27.07;48.35
66962;HTU21D;53897;51.126;5.868;2023-06-10T09:10:05;27.06;48.31
66962;HTU21D;53897;51.126;5.868;2023-06-10T09:12:34;27.07;48.30
66962;HTU21D;53897;51.126;5.868;2023-06-10T09:15:01;27.07;48.26
66962;HTU21D;53897;51.126;5.868;2023-06-10T09:17:28;27.07;48.22
66962;HTU21D;53897;51.126;5.868;2023-06-10T09:19:54;27.07;48.14
66962;HTU21D;53897;51.126;5.868;2023-06-10T09:22:22;27.08;48.04
66962;HTU21D;53897;51.126;5.868;2023-06-10T09:24:47;27.06;48.02
66962;HTU21D;53897;51.126;5.868;2023-06-10T09:27:13;27.08;47.99
66962;HTU21D;53897;51.126;5.868;2023-06-10T09:29:52;27.07;47.89
66962;HTU21D;53897;51.126;5.868;2023-06-10T09:32:19;27.08;47.88
66962;HTU21D;53897;51.126;5.868;2023-06-10T09:34:45;27.09;47.90
66962;HTU21D;53897;51.126;5.868;2023-06-10T09:37:11;27.09;47.92
66962;HTU21D;53897;51.126;5.868;2023-06-10T09:39:40;27.08;47.98
66962;HTU21D;53897;51.126;5.868;2023-06-10T09:42:16;27.06;48.02
66962;HTU21D;53897;51.126;5.868;2023-06-10T09:44:50;27.06;48.08
66962;HTU21D;53897;51.126;5.868;2023-06-10T09:47:21;27.05;48.15
66962;HTU21D;53897;51.126;5.868;2023-06-10T09:49:49;27.02;48.23
66962;HTU21D;53897;51.126;5.868;2023-06-10T09:52:21;27.01;48.30
66962;HTU21D;53897;51.126;5.868;2023-06-10T09:54:47;27.04;48.25
66962;HTU21D;53897;51.126;5.868;2023-06-10T09:57:13;27.04;48.17
66962;HTU21D;53897;51.126;5.868;2023-06-10T09:59:40;27.06;48.15
66962;HTU21D;53897;51.126;5.868;2023-06-10T10:02:06;27.06;48.17
66962;HTU21D;53897;51.126;5.868;2023-06-10T10:04:38;27.06;48.22
66962;HTU21D;53897;51.126;5.868;2023-06-10T10:07:04;27.06;48.31
66962;HTU21D;53897;51.126;5.868;2023-06-10T10:09:30;27.06;48.37
66962;HTU21D;53897;51.126;5.868;2023-06-10T10:11:57;27.07;48.42
66962;HTU21D;53897;51.126;5.868;2023-06-10T10:14:28;27.06;48.47
66962;HTU21D;53897;51.126;5.868;2023-06-10T10:16:57;27.07;48.43
66962;HTU21D;53897;51.126;5.868;2023-06-10T10:19:28;27.07;48.41
66962;HTU21D;53897;51.126;5.868;2023-06-10T10:22:03;27.08;48.44
66962;HTU21D;53897;51.126;5.868;2023-06-10T10:24:37;27.10;48.42
66962;HTU21D;53897;51.126;5.868;2023-06-10T10:27:11;27.09;48.52
66962;HTU21D;53897;51.126;5.868;2023-06-10T10:29:39;27.05;48.63
66962;HTU21D;53897;51.126;5.868;2023-06-10T10:32:07;27.05;48.68
66962;HTU21D;53897;51.126;5.868;2023-06-10T10:34:48;27.05;48.71
66962;HTU21D;53897;51.126;5.868;2023-06-10T10:37:16;27.06;48.79
66962;HTU21D;53897;51.126;5.868;2023-06-10T10:39:43;27.06;48.87
66962;HTU21D;53897;51.126;5.868;2023-06-10T10:42:09;27.08;48.94
66962;HTU21D;53897;51.126;5.868;2023-06-10T10:44:37;27.08;48.95
66962;HTU21D;53897;51.126;5.868;2023-06-10T10:47:04;27.10;48.94
66962;HTU21D;53897;51.126;5.868;2023-06-10T10:49:35;27.13;48.93
66962;HTU21D;53897;51.126;5.868;2023-06-10T10:52:03;27.14;49.04
66962;HTU21D;53897;51.126;5.868;2023-06-10T10:54:35;27.17;49.04
66962;HTU21D;53897;51.126;5.868;2023-06-10T10:59:57;27.20;49.05
66962;HTU21D;53897;51.126;5.868;2023-06-10T11:04:57;27.24;49.09
66962;HTU21D;53897;51.126;5.868;2023-06-10T11:07:24;27.26;49.15
66962;HTU21D;53897;51.126;5.868;2023-06-10T11:15:06;27.22;49.27
66962;HTU21D;53897;51.126;5.868;2023-06-10T11:17:32;27.22;49.30
66962;HTU21D;53897;51.126;5.868;2023-06-10T11:20:01;27.23;49.25
66962;HTU21D;53897;51.126;5.868;2023-06-10T11:22:26;27.23;49.23
66962;HTU21D;53897;51.126;5.868;2023-06-10T11:24:52;27.24;49.28
66962;HTU21D;53897;51.126;5.868;2023-06-10T11:27:22;27.26;49.25
66962;HTU21D;53897;51.126;5.868;2023-06-10T11:32:33;27.29;49.18
66962;HTU21D;53897;51.126;5.868;2023-06-10T11:35:00;27.32;49.14
66962;HTU21D;53897;51.126;5.868;2023-06-10T11:37:28;27.31;49.17
66962;HTU21D;53897;51.126;5.868;2023-06-10T11:39:55;27.30;49.24
66962;HTU21D;53897;51.126;5.868;2023-06-10T11:42:21;27.32;49.23
66962;HTU21D;53897;51.126;5.868;2023-06-10T11:44:53;27.34;49.18
66962;HTU21D;53897;51.126;5.868;2023-06-10T11:47:20;27.36;49.10
66962;HTU21D;53897;51.126;5.868;2023-06-10T11:49:56;27.39;49.08
66962;HTU21D;53897;51.126;5.868;2023-06-10T11:52:31;27.39;49.05
66962;HTU21D;53897;51.126;5.868;2023-06-10T11:54:59;27.41;49.02
66962;HTU21D;53897;51.126;5.868;2023-06-10T11:57:25;27.41;49.00
66962;HTU21D;53897;51.126;5.868;2023-06-10T11:59:51;27.44;48.98
66962;HTU21D;53897;51.126;5.868;2023-06-10T12:02:17;27.43;48.97
66962;HTU21D;53897;51.126;5.868;2023-06-10T12:04:45;27.45;48.94
66962;HTU21D;53897;51.126;5.868;2023-06-10T12:07:18;27.46;48.91
66962;HTU21D;53897;51.126;5.868;2023-06-10T12:09:45;27.47;48.89
66962;HTU21D;53897;51.126;5.868;2023-06-10T12:12:11;27.47;48.89
66962;HTU21D;53897;51.126;5.868;2023-06-10T12:20:08;27.52;48.89
66962;HTU21D;53897;51.126;5.868;2023-06-10T12:22:43;27.51;48.89
66962;HTU21D;53897;51.126;5.868;2023-06-10T12:25:11;27.52;48.91
66962;HTU21D;53897;51.126;5.868;2023-06-10T12:27:38;27.53;48.89
66962;HTU21D;53897;51.126;5.868;2023-06-10T12:30:05;27.54;48.89
66962;HTU21D;53897;51.126;5.868;2023-06-10T12:32:43;27.55;48.89
66962;HTU21D;53897;51.126;5.868;2023-06-10T12:35:10;27.55;48.89
66962;HTU21D;53897;51.126;5.868;2023-06-10T12:37:37;27.55;48.89
66962;HTU21D;53897;51.126;5.868;2023-06-10T12:40:05;27.55;48.92
66962;HTU21D;53897;51.126;5.868;2023-06-10T12:42:32;27.57;48.97
66962;HTU21D;53897;51.126;5.868;2023-06-10T12:45:03;27.58;48.98
66962;HTU21D;53897;51.126;5.868;2023-06-10T12:47:31;27.58;49.00
66962;HTU21D;53897;51.126;5.868;2023-06-10T12:49:59;27.59;49.02
66962;HTU21D;53897;51.126;5.868;2023-06-10T12:52:25;27.60;48.99
66962;HTU21D;53897;51.126;5.868;2023-06-10T12:54:51;27.61;48.93
66962;HTU21D;53897;51.126;5.868;2023-06-10T12:57:17;27.61;48.92
66962;HTU21D;53897;51.126;5.868;2023-06-10T12:59:43;27.63;48.98
66962;HTU21D;53897;51.126;5.868;2023-06-10T13:02:16;27.64;49.01
66962;HTU21D;53897;51.126;5.868;2023-06-10T13:04:46;27.65;49.05
66962;HTU21D;53897;51.126;5.868;2023-06-10T13:07:12;27.64;49.13
66962;HTU21D;53897;51.126;5.868;2023-06-10T13:09:38;27.66;49.24
66962;HTU21D;53897;51.126;5.868;2023-06-10T13:12:04;27.66;49.23
66962;HTU21D;53897;51.126;5.868;2023-06-10T13:14:30;27.67;49.21
66962;HTU21D;53897;51.126;5.868;2023-06-10T13:16:56;27.67;49.20
66962;HTU21D;53897;51.126;5.868;2023-06-10T13:19:23;27.69;49.18
66962;HTU21D;53897;51.126;5.868;2023-06-10T13:21:49;27.69;48.99
66962;HTU21D;53897;51.126;5.868;2023-06-10T13:24:15;27.71;48.83
66962;HTU21D;53897;51.126;5.868;2023-06-10T13:26:41;27.71;48.73
66962;HTU21D;53897;51.126;5.868;2023-06-10T13:29:06;27.73;48.62
66962;HTU21D;53897;51.126;5.868;2023-06-10T13:31:33;27.73;48.56
66962;HTU21D;53897;51.126;5.868;2023-06-10T13:33:59;27.74;48.63
66962;HTU21D;53897;51.126;5.868;2023-06-10T13:36:25;27.74;48.66
66962;HTU21D;53897;51.126;5.868;2023-06-10T13:38:51;27.74;48.67
66962;HTU21D;53897;51.126;5.868;2023-06-10T13:41:16;27.75;48.69
66962;HTU21D;53897;51.126;5.868;2023-06-10T13:43:42;27.76;48.68
66962;HTU21D;53897;51.126;5.868;2023-06-10T13:46:08;27.78;48.70
66962;HTU21D;53897;51.126;5.868;2023-06-10T13:48:34;27.79;48.71
66962;HTU21D;53897;51.126;5.868;2023-06-10T13:51:02;27.79;48.71
66962;HTU21D;53897;51.126;5.868;2023-06-10T13:53:28;27.80;48.73
66962;HTU21D;53897;51.126;5.868;2023-06-10T13:55:53;27.82;48.75
66962;HTU21D;53897;51.126;5.868;2023-06-10T13:58:20;27.82;48.75
66962;HTU21D;53897;51.126;5.868;2023-06-10T14:00:46;27.81;48.74
66962;HTU21D;53897;51.126;5.868;2023-06-10T14:03:12;27.83;48.76
66962;HTU21D;53897;51.126;5.868;2023-06-10T14:05:38;27.84;48.76
66962;HTU21D;53897;51.126;5.868;2023-06-10T14:08:04;27.83;48.76
66962;HTU21D;53897;51.126;5.868;2023-06-10T14:10:30;27.84;48.78
66962;HTU21D;53897;51.126;5.868;2023-06-10T14:12:56;27.86;48.79
66962;HTU21D;53897;51.126;5.868;2023-06-10T14:15:22;27.87;48.79
66962;HTU21D;53897;51.126;5.868;2023-06-10T14:17:47;27.86;48.82
66962;HTU21D;53897;51.126;5.868;2023-06-10T14:20:13;27.88;48.81
66962;HTU21D;53897;51.126;5.868;2023-06-10T14:22:39;27.89;48.83
66962;HTU21D;53897;51.126;5.868;2023-06-10T14:25:05;27.89;48.83
66962;HTU21D;53897;51.126;5.868;2023-06-10T14:27:31;27.88;48.82
66962;HTU21D;53897;51.126;5.868;2023-06-10T14:29:57;27.89;48.79
66962;HTU21D;53897;51.126;5.868;2023-06-10T14:32:23;27.89;48.76
66962;HTU21D;53897;51.126;5.868;2023-06-10T14:34:48;27.91;48.76
66962;HTU21D;53897;51.126;5.868;2023-06-10T14:37:14;27.90;48.76
66962;HTU21D;53897;51.126;5.868;2023-06-10T14:39:40;27.91;48.73
66962;HTU21D;53897;51.126;5.868;2023-06-10T14:42:06;27.91;48.73
66962;HTU21D;53897;51.126;5.868;2023-06-10T14:44:32;27.93;48.71
66962;HTU21D;53897;51.126;5.868;2023-06-10T14:46:57;27.94;48.72
66962;HTU21D;53897;51.126;5.868;2023-06-10T14:49:23;27.94;48.70
66962;HTU21D;53897;51.126;5.868;2023-06-10T14:51:49;27.96;48.72
66962;HTU21D;53897;51.126;5.868;2023-06-10T14:54:15;27.96;48.70
66962;HTU21D;53897;51.126;5.868;2023-06-10T14:56:41;27.96;48.66
66962;HTU21D;53897;51.126;5.868;2023-06-10T14:59:07;27.97;48.66
66962;HTU21D;53897;51.126;5.868;2023-06-10T15:01:33;27.97;48.68
66962;HTU21D;53897;51.126;5.868;2023-06-10T15:03:58;27.97;48.69
66962;HTU21D;53897;51.126;5.868;2023-06-10T15:06:24;27.97;48.73
66962;HTU21D;53897;51.126;5.868;2023-06-10T15:08:51;27.97;48.76
66962;HTU21D;53897;51.126;5.868;2023-06-10T15:11:17;27.98;48.78
66962;HTU21D;53897;51.126;5.868;2023-06-10T15:13:43;27.98;48.77
66962;HTU21D;53897;51.126;5.868;2023-06-10T15:16:08;27.98;48.70
66962;HTU21D;53897;51.126;5.868;2023-06-10T15:18:34;27.99;48.79
66962;HTU21D;53897;51.126;5.868;2023-06-10T15:21:00;27.98;48.89
66962;HTU21D;53897;51.126;5.868;2023-06-10T15:23:25;28.00;48.88
66962;HTU21D;53897;51.126;5.868;2023-06-10T15:25:51;28.00;48.89
66962;HTU21D;53897;51.126;5.868;2023-06-10T15:28:17;27.97;48.95
66962;HTU21D;53897;51.126;5.868;2023-06-10T15:30:43;27.98;49.06
66962;HTU21D;53897;51.126;5.868;2023-06-10T15:33:09;27.94;49.18
66962;HTU21D;53897;51.126;5.868;2023-06-10T15:35:34;27.93;49.27
66962;HTU21D;53897;51.126;5.868;2023-06-10T15:38:00;27.91;49.39
66962;HTU21D;53897;51.126;5.868;2023-06-10T15:40:26;27.88;49.50